Harviell, Missouri
Current Conditions -  °F | °C
As of 9:53 PM on Saturday 20 Dec 2014 (Local Time) from KPOF Reporting Station
Overcast Overcast  
Wind Chill: 37°   Ceiling: 2500
Heat Index: 41°   Visibility: 10mi
Dew Point: 33°   Wind: 6mph
Humidity: 73%   Direction: 110°ESE
Pressure: 30.26"   Gusts: NA
Location:  36.66°N, 90.47°W
Report Text: KPOF 210353Z AUTO 11005KT 10SM OVC025 05/01 A3026 RMK AO2 SLP251 T00500006
Loading
Personal Weather Stations






























Interactive Weather Map New forecast layout! Learn more

10-Day Weather Forecast

Advertisements
Track Severe Weather on mobile